LiveATC.Net - Listen to live air traffic control over the Internet! Contact LiveATC.net for advertising information


ICAO: KFLL  IATA: FLL   Airport: Fort Lauderdale/Hollywood International Airport
City: Fort Lauderdale   State/Province: Florida
Country: United States   Continent: North America
KFLL METAR Weather: KFLL 030653Z 00000KT 10SM FEW022 FEW060 27/23 A3000 RMK AO2 SLP157 T02670228 $
KFLL Flight Activity (FlightAware)
KFLL Airport Info   (AirNav) (iFlightPlanner)
KFLL Ground/Tower
Feed Status: DOWN
Last heard on: 2014-09-02 19:52:03 (0 days 11 hours 8 minutes ago)
KFLL Ground/Tower Audio Archives
FacilityFrequency
KFLL Ground121.400
KFLL Tower Rwy 9L/27R119.300
KFLL Tower Rwy 9R/27L120.200


NOTICE

Unauthorized use prohibited. See LiveATC.net Terms of Service


Find LiveATC Audio Streams


Airport/ARTCC Code

Frequency
(e.g., 124.400, 128.75)
Site-wide search

Browse LiveATC Feeds
LiveATC Coverage Map
Top 50 LiveATC Feeds
Bad Weather Areas

LiveATC FAQ
Offer a LiveATC Feed
Contact LiveATC.net
Press Inquiries

LiveATC on iPhone
LiveATC on Android

LiveATC Mobile
(Mobile browser)

ATC Audio Archives
Interesting Recordings

LiveATC Forums


Home Page
About LiveATC.net
Make a Donation
LiveATC Bookstore

Terms of Use
Privacy Policy

ATC/Radar Sites
U.S. ARTCC Freqs
Canadian Air Freqs

AIRMETs/SIGMETs

FAA Airport Status
Nat'l Airspace Status
Arrival Demand Charts


Server Software By:
Icecast.org
Liquidsoap

Please make a donation to help us keep growing!